Time;durP1;ratioP1;P1;durP2;ratioP2;P2;SDS_P1;SDS_P2;PMS_P1;PMS_P2;Temp;Humidity;BMP_temperature;BMP_pressure;BME280_temperature;BME280_humidity;BME280_pressure;Samples;Min_cycle;Max_cycle;Signal;HPM_P1;HPM_P2
2021/12/09 00:00:30;;;;;;;36.07;20.47;;;;;;;12.36;100.00;99709.95;1721126;83;21374;-60
2021/12/09 00:02:57;;;;;;;35.10;21.17;;;;;;;12.33;100.00;99706.95;1717805;83;21581;-61
2021/12/09 00:05:24;;;;;;;33.10;19.20;;;;;;;12.56;100.00;99715.08;1708170;83;21292;-59
2021/12/09 00:07:53;;;;;;;33.53;19.43;;;;;;;12.59;100.00;99713.36;1707147;83;21349;-59
2021/12/09 00:10:20;;;;;;;33.90;19.73;;;;;;;12.48;100.00;99718.45;1708183;83;21676;-64
2021/12/09 00:12:48;;;;;;;33.10;19.87;;;;;;;12.42;100.00;99720.06;1705855;83;21197;-60
2021/12/09 00:15:15;;;;;;;33.20;19.33;;;;;;;12.27;100.00;99725.55;1704093;83;21163;-59
2021/12/09 00:17:42;;;;;;;31.43;18.53;;;;;;;12.20;100.00;99727.41;1707909;83;21317;-59
2021/12/09 00:20:10;;;;;;;32.97;20.90;;;;;;;12.05;100.00;99733.39;1707560;83;21302;-58
2021/12/09 00:22:38;;;;;;;29.03;18.43;;;;;;;11.98;100.00;99738.62;1704656;83;21342;-60
2021/12/09 00:25:06;;;;;;;34.73;20.27;;;;;;;12.03;100.00;99740.62;1703703;83;21219;-60
2021/12/09 00:27:33;;;;;;;29.17;18.63;;;;;;;12.05;100.00;99740.72;1708091;83;22443;-59
2021/12/09 00:30:00;;;;;;;30.27;19.15;;;;;;;11.95;100.00;99748.67;1707638;83;21356;-59
2021/12/09 00:32:27;;;;;;;32.20;20.67;;;;;;;12.11;100.00;99748.22;1707627;83;21046;-59
2021/12/09 00:34:55;;;;;;;28.23;19.80;;;;;;;12.03;100.00;99749.76;1706316;83;21294;-66
2021/12/09 00:37:29;;;;;;;30.90;19.60;;;;;;;12.14;100.00;99759.07;1707510;83;22202;-59
2021/12/09 00:39:51;;;;;;;28.63;18.30;;;;;;;12.20;100.00;99761.38;1706322;83;21262;-59
2021/12/09 00:42:19;;;;;;;28.67;18.97;;;;;;;12.30;100.00;99764.34;1707797;83;21226;-60
2021/12/09 00:44:47;;;;;;;31.53;21.43;;;;;;;12.52;100.00;99770.61;1706809;83;21341;-60
2021/12/09 00:47:16;;;;;;;36.13;24.10;;;;;;;12.46;100.00;99767.51;1707332;83;21380;-66
2021/12/09 00:49:43;;;;;;;37.87;22.80;;;;;;;12.65;100.00;99764.00;1707770;83;21161;-58
2021/12/09 00:52:11;;;;;;;31.47;21.53;;;;;;;12.59;100.00;99771.39;1707608;83;21395;-60
2021/12/09 00:54:41;;;;;;;36.97;23.87;;;;;;;12.53;100.00;99775.62;1707512;83;21147;-63
2021/12/09 00:57:11;;;;;;;35.20;20.32;;;;;;;12.36;100.00;99781.03;1704574;83;21663;-59
2021/12/09 00:59:38;;;;;;;30.43;21.37;;;;;;;12.31;100.00;99780.34;1702901;83;20960;-60
2021/12/09 01:02:09;;;;;;;28.43;19.97;;;;;;;12.37;100.00;99782.12;1705785;83;21366;-61
2021/12/09 01:04:36;;;;;;;31.40;18.53;;;;;;;12.36;100.00;99784.95;1709445;83;21155;-63
2021/12/09 01:07:04;;;;;;;30.77;20.27;;;;;;;12.38;100.00;99790.25;1703121;83;22522;-61
2021/12/09 01:09:32;;;;;;;35.17;24.33;;;;;;;12.46;100.00;99791.03;1708382;83;21127;-66
2021/12/09 01:11:59;;;;;;;26.93;19.07;;;;;;;12.38;100.00;99787.64;1705048;83;21327;-61
2021/12/09 01:14:27;;;;;;;26.80;18.23;;;;;;;12.34;100.00;99786.45;1703509;83;21861;-64
2021/12/09 01:16:55;;;;;;;26.40;16.63;;;;;;;12.40;100.00;99783.53;1703654;83;21730;-61
2021/12/09 01:19:23;;;;;;;29.33;17.97;;;;;;;12.48;100.00;99785.11;1707886;83;21219;-61
2021/12/09 01:21:51;;;;;;;25.27;17.97;;;;;;;12.52;100.00;99779.25;1704237;83;21020;-62
2021/12/09 01:24:18;;;;;;;27.77;17.97;;;;;;;12.48;100.00;99776.76;1704847;83;21197;-62
2021/12/09 01:26:49;;;;;;;23.80;15.17;;;;;;;12.53;100.00;99773.01;1704955;83;21253;-70
2021/12/09 01:29:20;;;;;;;21.33;15.50;;;;;;;12.66;100.00;99776.89;1707527;83;21338;-59
2021/12/09 01:31:53;;;;;;;28.57;17.80;;;;;;;12.69;100.00;99777.47;1704292;83;22203;-67
2021/12/09 01:34:15;;;;;;;24.07;17.97;;;;;;;12.76;100.00;99782.16;1702144;83;22393;-59
2021/12/09 01:36:44;;;;;;;25.63;16.80;;;;;;;12.77;100.00;99781.17;1705052;83;21129;-63
2021/12/09 01:39:11;;;;;;;26.23;18.23;;;;;;;12.79;100.00;99778.63;1705309;83;21358;-61
2021/12/09 01:41:38;;;;;;;29.00;20.40;;;;;;;12.70;100.00;99783.81;1706390;83;21126;-66
2021/12/09 01:44:05;;;;;;;26.57;17.93;;;;;;;12.57;100.00;99792.50;1705895;83;21294;-60
2021/12/09 01:46:34;;;;;;;23.50;16.33;;;;;;;12.51;100.00;99786.01;1706283;83;21239;-64
2021/12/09 01:49:01;;;;;;;27.37;17.67;;;;;;;12.59;100.00;99788.39;1707094;83;21215;-60
2021/12/09 01:51:29;;;;;;;25.57;17.03;;;;;;;12.58;100.00;99790.72;1706751;83;21373;-58
2021/12/09 01:53:56;;;;;;;29.77;19.63;;;;;;;12.62;100.00;99794.52;1702866;83;21387;-63
2021/12/09 01:56:25;;;;;;;27.77;17.80;;;;;;;12.35;100.00;99789.38;1706360;83;21385;-62
2021/12/09 01:58:58;;;;;;;27.50;17.93;;;;;;;12.56;100.00;99790.91;1708902;83;21388;-59
2021/12/09 02:01:26;;;;;;;24.23;15.93;;;;;;;12.59;100.00;99792.31;1712194;83;21355;-59
2021/12/09 02:03:53;;;;;;;29.70;17.40;;;;;;;12.76;100.00;99792.12;1711523;83;21390;-59
2021/12/09 02:06:22;;;;;;;26.43;18.33;;;;;;;12.93;100.00;99791.14;1712607;83;21783;-60
2021/12/09 02:08:49;;;;;;;30.83;21.77;;;;;;;12.96;100.00;99794.66;1712199;83;21197;-59
2021/12/09 02:11:17;;;;;;;25.60;17.20;;;;;;;13.06;100.00;99787.13;1712766;83;21262;-60
2021/12/09 02:13:44;;;;;;;31.03;19.00;;;;;;;13.12;100.00;99792.05;1708779;83;21310;-59
2021/12/09 02:16:13;;;;;;;28.83;19.20;;;;;;;13.20;100.00;99787.86;1712365;83;21255;-60
2021/12/09 02:18:41;;;;;;;30.70;20.23;;;;;;;13.16;100.00;99791.91;1712192;83;21289;-59
2021/12/09 02:21:14;;;;;;;27.83;18.97;;;;;;;13.15;100.00;99779.85;1712666;83;21334;-60
2021/12/09 02:23:45;;;;;;;30.60;19.10;;;;;;;13.18;100.00;99793.80;1711801;83;21330;-61
2021/12/09 02:26:14;;;;;;;35.68;20.02;;;;;;;13.09;100.00;99792.45;1711473;83;21733;-63
2021/12/09 02:28:41;;;;;;;28.73;20.13;;;;;;;13.11;100.00;99792.55;1712516;83;21074;-60
2021/12/09 02:31:08;;;;;;;31.17;20.57;;;;;;;13.22;100.00;99801.55;1713006;83;21694;-61
2021/12/09 02:33:36;;;;;;;28.10;18.57;;;;;;;13.22;100.00;99798.94;1712801;83;21194;-67
2021/12/09 02:36:04;;;;;;;34.87;23.17;;;;;;;13.11;100.00;99801.71;1712200;83;21011;-60
2021/12/09 02:38:35;;;;;;;34.57;23.03;;;;;;;13.21;100.00;99805.16;1713330;83;21271;-60
2021/12/09 02:41:02;;;;;;;33.17;21.93;;;;;;;13.25;100.00;99808.19;1712471;83;21085;-60
2021/12/09 02:43:30;;;;;;;32.20;22.43;;;;;;;13.18;100.00;99810.81;1712900;83;21181;-63
2021/12/09 02:46:00;;;;;;;29.03;20.00;;;;;;;13.38;100.00;99810.73;1711541;83;21242;-68
2021/12/09 02:48:27;;;;;;;35.47;21.87;;;;;;;13.52;100.00;99811.42;1712803;83;21486;-62
2021/12/09 02:50:54;;;;;;;32.23;23.07;;;;;;;13.69;100.00;99816.44;1710052;83;21289;-59
2021/12/09 02:53:21;;;;;;;35.03;22.43;;;;;;;13.56;100.00;99813.91;1712511;83;21346;-63
2021/12/09 02:55:48;;;;;;;33.10;21.80;;;;;;;13.60;100.00;99817.73;1701958;83;21384;-68
2021/12/09 02:58:15;;;;;;;32.87;21.20;;;;;;;13.65;100.00;99816.58;1710088;83;21264;-59
2021/12/09 03:01:13;;;;;;;39.33;22.97;;;;;;;13.49;100.00;99818.42;1704340;83;21182;-61
2021/12/09 03:03:49;;;;;;;35.27;22.10;;;;;;;13.51;100.00;99811.94;1710944;83;21377;-60
2021/12/09 03:06:10;;;;;;;32.93;22.87;;;;;;;13.93;100.00;99812.70;1705202;83;22558;-63
2021/12/09 03:08:38;;;;;;;33.37;21.47;;;;;;;13.85;100.00;99819.82;1703111;83;21787;-58
2021/12/09 03:11:19;;;;;;;43.17;23.57;;;;;;;13.90;100.00;99817.06;1706850;83;22234;-60
2021/12/09 03:13:49;;;;;;;40.27;23.77;;;;;;;14.08;100.00;99822.34;1703010;83;21380;-59
2021/12/09 03:16:22;;;;;;;41.20;26.77;;;;;;;13.95;100.00;99826.41;1707034;83;21841;-60
2021/12/09 03:18:54;;;;;;;41.17;24.83;;;;;;;13.99;100.00;99822.34;1702108;83;21819;-59
2021/12/09 03:21:28;;;;;;;44.58;28.32;;;;;;;13.93;100.00;99830.53;1705500;83;27203;-63
2021/12/09 03:23:56;;;;;;;35.40;22.53;;;;;;;13.80;100.00;99834.59;1701368;83;21179;-60
2021/12/09 03:26:29;;;;;;;35.60;21.83;;;;;;;13.76;100.00;99832.91;1707463;83;21721;-64
2021/12/09 03:28:59;;;;;;;33.97;22.30;;;;;;;13.32;100.00;99829.89;1706643;83;21264;-60
2021/12/09 03:31:26;;;;;;;32.77;22.00;;;;;;;13.08;100.00;99836.66;1706722;83;21282;-60
2021/12/09 03:33:53;;;;;;;39.27;23.90;;;;;;;13.24;100.00;99842.72;1703107;83;21248;-60
2021/12/09 03:36:20;;;;;;;38.57;23.53;;;;;;;13.23;100.00;99850.30;1699102;83;21323;-62
2021/12/09 03:38:48;;;;;;;36.87;22.37;;;;;;;13.15;100.00;99849.20;1705792;83;21393;-64
2021/12/09 03:41:15;;;;;;;34.13;22.57;;;;;;;13.13;100.00;99852.52;1706197;83;21341;-59
2021/12/09 03:43:43;;;;;;;47.27;25.87;;;;;;;13.44;100.00;99850.96;1707054;83;22452;-61
2021/12/09 03:46:10;;;;;;;43.23;25.80;;;;;;;12.90;100.00;99851.22;1707672;83;21187;-60
2021/12/09 03:48:38;;;;;;;44.07;25.43;;;;;;;12.74;100.00;99862.16;1707113;83;21212;-60
2021/12/09 03:51:07;;;;;;;41.03;23.97;;;;;;;12.57;100.00;99860.98;1704123;83;21459;-67
2021/12/09 03:53:34;;;;;;;36.33;22.77;;;;;;;12.54;100.00;99864.83;1704139;83;21127;-60
2021/12/09 03:56:02;;;;;;;39.03;23.97;;;;;;;12.39;100.00;99853.81;1707239;83;21320;-60
2021/12/09 03:58:29;;;;;;;39.77;22.10;;;;;;;12.57;100.00;99864.40;1706034;83;21211;-61
2021/12/09 04:00:56;;;;;;;35.77;20.93;;;;;;;12.54;100.00;99866.62;1702713;80;21388;-59
2021/12/09 04:03:24;;;;;;;37.07;22.40;;;;;;;12.56;100.00;99868.54;1709463;83;21021;-59
2021/12/09 04:05:51;;;;;;;36.93;21.73;;;;;;;12.66;100.00;99867.11;1703374;83;21823;-62
2021/12/09 04:08:21;;;;;;;43.53;24.10;;;;;;;12.85;100.00;99865.43;1704718;83;21367;-59
2021/12/09 04:10:49;;;;;;;38.30;22.67;;;;;;;12.88;100.00;99868.95;1701724;83;21298;-60
2021/12/09 04:13:18;;;;;;;36.67;22.53;;;;;;;12.99;100.00;99869.28;1704294;83;21251;-66
2021/12/09 04:15:45;;;;;;;35.60;20.37;;;;;;;13.07;100.00;99876.92;1703061;83;22286;-61
2021/12/09 04:18:14;;;;;;;36.33;21.57;;;;;;;13.26;100.00;99873.91;1704601;83;21264;-63
2021/12/09 04:20:42;;;;;;;33.97;22.47;;;;;;;13.25;100.00;99869.70;1704476;83;21134;-60
2021/12/09 04:23:09;;;;;;;35.13;21.40;;;;;;;13.27;100.00;99877.65;1703817;83;21219;-60
2021/12/09 04:25:36;;;;;;;36.97;22.47;;;;;;;13.32;100.00;99879.63;1705073;83;22131;-60
2021/12/09 04:28:04;;;;;;;36.17;22.23;;;;;;;13.27;100.00;99885.50;1699702;83;21328;-59
2021/12/09 04:30:33;;;;;;;35.30;21.27;;;;;;;13.26;100.00;99882.59;1707743;83;21358;-59
2021/12/09 04:33:00;;;;;;;36.50;21.53;;;;;;;13.02;100.00;99879.34;1688014;83;21342;-60
2021/12/09 04:35:28;;;;;;;38.53;21.63;;;;;;;12.93;100.00;99881.40;1705325;83;21908;-67
2021/12/09 04:37:55;;;;;;;35.43;21.10;;;;;;;12.90;100.00;99885.22;1700881;83;22441;-60
2021/12/09 04:40:23;;;;;;;31.37;18.20;;;;;;;12.85;100.00;99887.66;1707314;83;21231;-60
2021/12/09 04:42:51;;;;;;;35.93;20.70;;;;;;;12.82;100.00;99890.69;1705411;83;21329;-61
2021/12/09 04:45:20;;;;;;;39.27;20.63;;;;;;;12.76;100.00;99884.96;1694097;83;21153;-66
2021/12/09 04:47:48;;;;;;;39.27;21.83;;;;;;;12.67;100.00;99892.75;1706937;83;21571;-63
2021/12/09 04:50:17;;;;;;;34.37;19.33;;;;;;;12.84;100.00;99895.22;1709802;83;22619;-61
2021/12/09 04:52:44;;;;;;;35.13;21.30;;;;;;;12.62;100.00;99903.03;1709326;83;21296;-61
2021/12/09 04:55:11;;;;;;;39.27;22.17;;;;;;;12.70;100.00;99896.77;1709521;83;21371;-60
2021/12/09 04:57:42;;;;;;;41.07;23.63;;;;;;;12.75;100.00;99906.11;1702416;83;21378;-61
2021/12/09 05:00:13;;;;;;;40.05;22.30;;;;;;;12.86;100.00;99901.55;1705557;83;21863;-60
2021/12/09 05:05:25;;;;;;;38.70;23.60;;;;;;;13.18;100.00;99903.72;1704782;84;21090;-58
2021/12/09 05:07:53;;;;;;;39.67;23.17;;;;;;;13.34;100.00;99904.59;1703262;84;21367;-59
2021/12/09 05:10:20;;;;;;;42.40;23.53;;;;;;;13.32;100.00;99910.53;1704128;84;21051;-62
2021/12/09 05:12:48;;;;;;;34.93;21.40;;;;;;;13.25;100.00;99918.92;1703650;84;21234;-67
2021/12/09 05:15:16;;;;;;;40.67;23.90;;;;;;;13.25;100.00;99918.13;1702841;83;21370;-64
2021/12/09 05:17:44;;;;;;;46.07;26.37;;;;;;;13.28;100.00;99921.12;1704244;83;21372;-61
2021/12/09 05:20:12;;;;;;;39.67;25.17;;;;;;;13.42;100.00;99927.11;1703967;84;21362;-62
2021/12/09 05:22:40;;;;;;;41.73;25.60;;;;;;;13.19;100.00;99926.28;1699021;83;21309;-69
2021/12/09 05:25:07;;;;;;;39.60;24.17;;;;;;;13.32;100.00;99934.09;1702439;83;21234;-60
2021/12/09 05:27:37;;;;;;;42.43;26.60;;;;;;;13.37;100.00;99934.29;1701112;83;21242;-63
2021/12/09 05:30:11;;;;;;;42.10;25.13;;;;;;;12.18;100.00;99945.78;1693078;83;21356;-65
2021/12/09 05:32:36;;;;;;;36.68;23.77;;;;;;;11.62;100.00;99955.72;1704335;83;21267;-68
2021/12/09 05:35:03;;;;;;;39.10;24.30;;;;;;;11.59;100.00;99958.72;1699576;83;20982;-63
2021/12/09 05:37:30;;;;;;;38.63;24.60;;;;;;;11.63;100.00;99958.62;1704320;83;21171;-59
2021/12/09 05:39:58;;;;;;;41.67;25.40;;;;;;;11.52;100.00;99961.33;1704506;84;21747;-60
2021/12/09 05:42:25;;;;;;;40.83;24.20;;;;;;;11.49;100.00;99967.44;1704550;84;21906;-60
2021/12/09 05:44:52;;;;;;;45.17;25.83;;;;;;;11.61;100.00;99972.39;1703882;84;21624;-69
2021/12/09 05:47:19;;;;;;;41.27;26.37;;;;;;;11.69;100.00;99974.31;1703720;84;21038;-62
2021/12/09 05:49:47;;;;;;;39.00;23.03;;;;;;;11.57;100.00;99979.01;1703183;84;21307;-60
2021/12/09 05:52:15;;;;;;;41.30;23.87;;;;;;;11.68;100.00;99979.75;1699322;84;21312;-61
2021/12/09 05:54:42;;;;;;;40.37;25.90;;;;;;;11.67;100.00;99983.37;1700673;84;21194;-68
2021/12/09 05:57:10;;;;;;;44.00;27.70;;;;;;;11.79;100.00;99991.43;1697823;84;21321;-63
2021/12/09 05:59:40;;;;;;;46.90;26.30;;;;;;;11.96;100.00;99989.27;1699358;84;21346;-60
2021/12/09 06:02:06;;;;;;;43.23;23.83;;;;;;;11.72;100.00;99994.02;1691852;83;21104;-60
2021/12/09 06:04:34;;;;;;;43.57;26.13;;;;;;;11.38;100.00;100002.22;1693676;84;21308;-63
2021/12/09 06:07:01;;;;;;;41.23;24.43;;;;;;;11.42;100.00;99998.73;1691884;84;21254;-72
2021/12/09 06:09:29;;;;;;;41.67;24.67;;;;;;;11.51;100.00;100001.46;1690875;83;22342;-63
2021/12/09 06:11:58;;;;;;;39.97;24.83;;;;;;;11.54;100.00;100004.19;1690424;83;21453;-63
2021/12/09 06:14:25;;;;;;;47.77;27.90;;;;;;;11.53;100.00;100006.51;1693080;84;21226;-63
2021/12/09 06:16:53;;;;;;;54.40;31.90;;;;;;;11.54;100.00;100008.91;1690530;84;21227;-72
2021/12/09 06:19:21;;;;;;;52.63;33.43;;;;;;;11.69;100.00;100004.84;1694818;84;22354;-63
2021/12/09 06:21:49;;;;;;;58.87;36.70;;;;;;;11.85;100.00;100009.73;1697974;84;21412;-63
2021/12/09 06:24:18;;;;;;;52.13;32.93;;;;;;;12.09;100.00;100006.30;1699508;83;21342;-62
2021/12/09 06:26:46;;;;;;;55.33;35.73;;;;;;;11.88;100.00;100014.57;1699078;84;21733;-72
2021/12/09 06:29:13;;;;;;;56.50;34.63;;;;;;;11.94;100.00;100018.22;1695732;83;21776;-62
2021/12/09 06:31:40;;;;;;;56.57;32.53;;;;;;;11.96;100.00;100019.31;1693551;84;21851;-61
2021/12/09 06:34:10;;;;;;;43.80;28.17;;;;;;;11.90;100.00;100026.14;1699090;84;21195;-63
2021/12/09 06:36:37;;;;;;;43.17;25.00;;;;;;;11.90;100.00;100025.64;1692403;83;21181;-62
2021/12/09 06:39:05;;;;;;;48.13;26.60;;;;;;;11.93;100.00;100030.95;1693765;84;21269;-68
2021/12/09 06:41:33;;;;;;;45.37;27.63;;;;;;;12.02;100.00;100028.98;1696681;84;21328;-64
2021/12/09 06:44:00;;;;;;;48.33;30.80;;;;;;;12.20;100.00;100042.77;1696827;84;22270;-64
2021/12/09 06:46:28;;;;;;;43.73;26.93;;;;;;;12.26;100.00;100032.83;1697104;83;21291;-64
2021/12/09 06:48:56;;;;;;;41.80;24.27;;;;;;;12.32;100.00;100035.46;1694867;83;21228;-75
2021/12/09 06:51:24;;;;;;;38.10;23.87;;;;;;;12.39;100.00;100031.05;1696783;84;21273;-73
2021/12/09 06:53:52;;;;;;;44.10;26.07;;;;;;;12.33;100.00;100038.38;1692045;84;21396;-62
2021/12/09 06:56:19;;;;;;;41.60;24.57;;;;;;;12.46;100.00;100043.30;1689933;82;21133;-61
2021/12/09 06:58:46;;;;;;;45.67;25.00;;;;;;;12.45;100.00;100039.89;1689179;84;21324;-61
2021/12/09 07:01:13;;;;;;;42.23;23.70;;;;;;;12.54;100.00;100037.87;1693643;83;21790;-74
2021/12/09 07:03:40;;;;;;;40.03;24.60;;;;;;;12.66;100.00;100046.74;1696930;83;21634;-61
2021/12/09 07:06:11;;;;;;;45.13;26.43;;;;;;;12.78;100.00;100050.35;1697483;84;21749;-63
2021/12/09 07:08:42;;;;;;;85.07;60.87;;;;;;;12.90;100.00;100050.03;1695744;83;21348;-63
2021/12/09 07:11:06;;;;;;;43.93;27.23;;;;;;;12.90;100.00;100050.03;1693382;83;21215;-63
2021/12/09 07:13:34;;;;;;;41.67;23.07;;;;;;;12.99;100.00;100057.16;1697243;84;21505;-73
2021/12/09 07:16:02;;;;;;;42.73;25.50;;;;;;;13.05;100.00;100056.86;1695544;84;22935;-61
2021/12/09 07:18:30;;;;;;;46.63;25.90;;;;;;;13.09;100.00;100061.48;1698008;83;21971;-60
2021/12/09 07:20:57;;;;;;;49.23;27.33;;;;;;;13.22;100.00;100058.05;1693888;83;22199;-62
2021/12/09 07:23:25;;;;;;;47.90;27.90;;;;;;;13.22;100.00;100058.05;1693810;83;21388;-75
2021/12/09 07:25:52;;;;;;;46.97;27.63;;;;;;;13.13;100.00;100064.50;1694714;83;21498;-61
2021/12/09 07:28:19;;;;;;;45.27;25.67;;;;;;;13.19;100.00;100068.92;1693415;84;21845;-64
2021/12/09 07:30:46;;;;;;;48.27;26.50;;;;;;;13.30;100.00;100068.33;1700310;84;21996;-60
2021/12/09 07:33:14;;;;;;;46.07;27.20;;;;;;;13.31;100.00;100067.31;1699724;83;21848;-61
2021/12/09 07:35:42;;;;;;;47.60;25.70;;;;;;;13.28;100.00;100078.19;1700707;83;21529;-75
2021/12/09 07:38:10;;;;;;;45.20;25.83;;;;;;;13.28;100.00;100078.19;1703579;84;22098;-64
2021/12/09 07:40:38;;;;;;;38.13;23.90;;;;;;;13.59;100.00;100081.92;1703922;82;21368;-64
2021/12/09 07:43:05;;;;;;;39.90;23.00;;;;;;;13.59;100.00;100081.92;1699068;83;21509;-62
2021/12/09 07:45:33;;;;;;;36.87;23.60;;;;;;;13.53;100.00;100083.57;1700324;84;21567;-75
2021/12/09 07:48:01;;;;;;;33.53;22.33;;;;;;;13.59;100.00;100084.55;1698103;82;21506;-62
2021/12/09 07:50:31;;;;;;;38.87;23.40;;;;;;;13.60;100.00;100087.48;1699544;82;21501;-67
2021/12/09 07:52:58;;;;;;;38.37;22.47;;;;;;;13.63;100.00;100089.66;1703958;84;21638;-62
2021/12/09 07:55:26;;;;;;;37.57;23.30;;;;;;;13.65;100.00;100092.09;1700083;84;21433;-76
2021/12/09 07:57:53;;;;;;;36.50;23.63;;;;;;;13.69;100.00;100091.98;1701605;84;22020;-66
2021/12/09 08:00:29;;;;;;;33.13;20.13;;;;;;;13.91;100.00;100095.92;1703898;83;23421;-65
2021/12/09 08:02:57;;;;;;;35.00;21.93;;;;;;;13.91;100.00;100095.92;1693699;84;21664;-63
2021/12/09 08:05:24;;;;;;;32.53;21.63;;;;;;;13.56;100.00;100092.80;1687890;84;21797;-64
2021/12/09 08:07:52;;;;;;;33.87;21.00;;;;;;;13.80;100.00;100086.89;1685961;84;21769;-62
2021/12/09 08:10:22;;;;;;;38.23;21.70;;;;;;;14.01;100.00;100099.39;1678755;84;21764;-61
2021/12/09 08:12:49;;;;;;;39.27;22.20;;;;;;;14.10;100.00;100092.39;1687547;84;21723;-63
2021/12/09 08:15:18;;;;;;;39.03;22.93;;;;;;;14.31;100.00;100089.94;1689490;84;21543;-78
2021/12/09 08:17:57;;;;;;;30.97;20.00;;;;;;;14.31;100.00;100089.94;1682298;84;21382;-63
2021/12/09 08:20:15;;;;;;;31.23;20.40;;;;;;;14.40;100.00;100091.02;1685332;84;21725;-62
2021/12/09 08:22:44;;;;;;;30.33;18.67;;;;;;;14.29;100.00;100094.61;1685776;84;22214;-62
2021/12/09 08:25:13;;;;;;;30.90;19.33;;;;;;;14.43;100.00;100093.20;1686284;84;22686;-74
2021/12/09 08:27:45;;;;;;;30.47;19.10;;;;;;;14.42;100.00;100094.22;1685598;84;22910;-63
2021/12/09 08:30:14;;;;;;;32.57;19.40;;;;;;;14.39;100.00;100090.19;1689274;84;21646;-62
2021/12/09 08:32:42;;;;;;;27.27;18.33;;;;;;;14.77;100.00;100075.74;1688703;84;21824;-61
2021/12/09 08:35:10;;;;;;;27.47;19.00;;;;;;;14.77;100.00;100075.74;1687152;84;21747;-74
2021/12/09 08:37:39;;;;;;;30.20;18.93;;;;;;;14.70;100.00;100082.86;1688691;84;21763;-61
2021/12/09 08:40:08;;;;;;;29.40;19.70;;;;;;;14.91;100.00;100080.86;1685283;84;21682;-62
2021/12/09 08:42:36;;;;;;;32.63;19.70;;;;;;;15.17;100.00;100076.67;1684863;84;21710;-62
2021/12/09 08:45:06;;;;;;;25.43;17.30;;;;;;;15.36;100.00;100081.95;1681402;84;21642;-73
2021/12/09 08:47:35;;;;;;;23.23;16.53;;;;;;;15.81;100.00;100071.95;1677399;84;48322;-61
2021/12/09 08:50:02;;;;;;;25.50;17.30;;;;;;;16.11;100.00;100071.95;1682740;84;21081;-61
2021/12/09 08:52:31;;;;;;;21.57;16.03;;;;;;;16.44;100.00;100070.66;1685424;84;21540;-63
2021/12/09 08:54:59;;;;;;;20.33;14.33;;;;;;;16.73;100.00;100075.08;1681926;84;21075;-62
2021/12/09 08:57:27;;;;;;;23.00;13.13;;;;;;;16.70;100.00;100078.13;1688113;84;21204;-63
2021/12/09 08:59:56;;;;;;;21.33;14.40;;;;;;;16.75;100.00;100073.56;1686614;83;21061;-63
2021/12/09 09:02:23;;;;;;;21.07;14.53;;;;;;;16.72;100.00;100078.72;1684462;84;21075;-62
2021/12/09 09:04:51;;;;;;;22.03;15.00;;;;;;;16.73;100.00;100077.72;1697213;83;21076;-80
2021/12/09 09:07:18;;;;;;;15.30;10.47;;;;;;;16.72;100.00;100083.19;1695474;83;21532;-66
2021/12/09 09:09:45;;;;;;;12.80;9.27;;;;;;;16.80;100.00;100068.92;1690877;83;21536;-63
2021/12/09 09:12:14;;;;;;;12.07;8.30;;;;;;;16.89;100.00;100072.80;1692144;83;21185;-61
2021/12/09 09:14:42;;;;;;;12.23;8.27;;;;;;;16.93;100.00;100073.95;1695785;83;21137;-63
2021/12/09 09:17:09;;;;;;;10.63;7.23;;;;;;;17.10;100.00;100073.55;1692828;84;21008;-67
2021/12/09 09:19:36;;;;;;;11.73;8.43;;;;;;;17.16;100.00;100072.64;1698327;83;22373;-72
2021/12/09 09:22:04;;;;;;;13.27;9.00;;;;;;;17.29;100.00;100072.91;1691096;83;21570;-62
2021/12/09 09:24:32;;;;;;;14.73;9.17;;;;;;;17.44;100.00;100075.85;1693187;84;21054;-66
2021/12/09 09:26:59;;;;;;;12.80;8.47;;;;;;;17.49;100.00;100073.83;1689617;84;20984;-68
2021/12/09 09:29:27;;;;;;;22.20;16.30;;;;;;;17.38;100.00;100075.97;1701740;84;21118;-64
2021/12/09 09:31:56;;;;;;;21.07;16.77;;;;;;;17.31;100.00;100072.66;1689287;83;21075;-67
2021/12/09 09:34:23;;;;;;;16.73;11.77;;;;;;;17.33;100.00;100071.41;1698082;84;21161;-62
2021/12/09 09:36:51;;;;;;;14.73;10.50;;;;;;;17.12;100.00;100073.31;1697480;84;21588;-62
2021/12/09 09:39:22;;;;;;;13.47;10.37;;;;;;;17.08;100.00;100076.92;1697999;83;21052;-72
2021/12/09 09:41:59;;;;;;;15.73;11.87;;;;;;;16.98;100.00;100078.03;1693360;83;21090;-64
2021/12/09 09:44:28;;;;;;;15.50;10.37;;;;;;;16.74;100.00;100079.83;1698394;84;21062;-62
2021/12/09 09:46:52;;;;;;;15.13;9.60;;;;;;;16.66;100.00;100079.62;1697308;83;21763;-64
2021/12/09 09:49:19;;;;;;;11.70;7.63;;;;;;;16.49;100.00;100086.07;1652876;84;21074;-62
2021/12/09 09:51:47;;;;;;;13.77;8.77;;;;;;;16.36;100.00;100084.94;1694435;84;21122;-73
2021/12/09 09:54:14;;;;;;;8.43;5.83;;;;;;;16.33;100.00;100081.47;1695801;84;21113;-61
2021/12/09 09:56:42;;;;;;;7.90;4.73;;;;;;;16.27;100.00;100085.78;1695489;83;21615;-60
2021/12/09 09:59:12;;;;;;;5.70;4.00;;;;;;;16.02;100.00;100089.05;1699369;84;21121;-64
2021/12/09 10:01:40;;;;;;;6.83;3.90;;;;;;;16.04;100.00;100082.56;1692674;84;21070;-65
2021/12/09 10:04:20;;;;;;;6.63;3.60;;;;;;;16.07;100.00;100085.27;1693320;84;21034;-63
2021/12/09 10:06:44;;;;;;;5.43;3.40;;;;;;;15.98;99.96;100078.18;1687221;83;21403;-73
2021/12/09 10:09:12;;;;;;;7.30;5.20;;;;;;;15.91;99.00;100084.55;1687263;84;22377;-62
2021/12/09 10:11:39;;;;;;;7.97;4.77;;;;;;;15.87;99.87;100082.08;1688331;84;21156;-65
2021/12/09 10:14:20;;;;;;;9.80;7.37;;;;;;;15.92;98.80;100087.49;1690532;84;22206;-66
2021/12/09 10:17:08;;;;;;;9.10;5.47;;;;;;;15.93;100.00;100087.77;1689100;84;21537;-74
2021/12/09 10:19:39;;;;;;;6.80;4.40;;;;;;;15.97;100.00;100088.93;1683428;84;21569;-65
2021/12/09 10:22:12;;;;;;;7.07;4.03;;;;;;;15.87;99.95;100092.59;1687439;84;22162;-61
2021/12/09 10:24:41;;;;;;;5.60;3.80;;;;;;;15.90;100.00;100097.41;1690003;84;21517;-63
2021/12/09 10:27:08;;;;;;;5.30;3.60;;;;;;;15.73;100.00;100094.08;1690287;84;21097;-62
2021/12/09 10:29:41;;;;;;;5.43;3.67;;;;;;;15.58;100.00;100102.30;1695292;84;21496;-67
2021/12/09 10:32:10;;;;;;;7.80;4.50;;;;;;;15.61;100.00;100102.39;1687012;84;21508;-61
2021/12/09 10:34:45;;;;;;;7.57;4.17;;;;;;;15.62;100.00;100097.93;1662298;85;20983;-62
2021/12/09 10:37:21;;;;;;;4.53;2.90;;;;;;;15.53;100.00;100103.97;1628133;87;21222;-64
2021/12/09 10:40:08;;;;;;;7.70;4.87;;;;;;;15.48;100.00;100103.83;1683933;84;21073;-64
2021/12/09 10:42:51;;;;;;;6.93;4.40;;;;;;;15.49;100.00;100108.06;1657778;85;21117;-62
2021/12/09 10:45:21;;;;;;;6.13;3.67;;;;;;;15.40;100.00;100113.31;1690373;84;21078;-62
2021/12/09 10:47:57;;;;;;;6.53;3.80;;;;;;;15.18;100.00;100112.41;1659610;85;21650;-75
2021/12/09 10:50:40;;;;;;;8.13;4.20;;;;;;;15.19;100.00;100115.35;1679753;83;21220;-75
2021/12/09 10:53:33;;;;;;;9.10;3.70;;;;;;;15.22;100.00;100132.47;1653902;85;21877;-64
2021/12/09 10:55:57;;;;;;;9.63;4.00;;;;;;;15.22;100.00;100132.47;1659109;85;20994;-63
2021/12/09 10:58:31;;;;;;;6.73;3.33;;;;;;;15.07;100.00;100128.87;1693964;84;21673;-66
2021/12/09 11:01:05;;;;;;;6.37;3.30;;;;;;;14.95;100.00;100130.59;1667351;85;21684;-64
2021/12/09 11:03:50;;;;;;;7.97;3.40;;;;;;;14.92;100.00;100133.64;1688900;83;21700;-63
2021/12/09 11:06:25;;;;;;;7.93;4.00;;;;;;;14.80;100.00;100134.84;1711926;83;22166;-61
2021/12/09 11:08:54;;;;;;;5.90;3.13;;;;;;;14.80;100.00;100140.09;1704421;83;21649;-77
2021/12/09 11:11:41;;;;;;;6.50;2.60;;;;;;;14.70;99.98;100144.52;1711637;83;21791;-73
2021/12/09 11:14:17;;;;;;;6.27;2.90;;;;;;;14.73;100.00;100151.94;1702864;83;21768;-61
2021/12/09 11:16:52;;;;;;;11.10;7.50;;;;;;;14.53;100.00;100150.77;1709882;83;22132;-62